Time;durP1;ratioP1;P1;durP2;ratioP2;P2;SDS_P1;SDS_P2;PMS_P1;PMS_P2;Temp;Humidity;BMP_temperature;BMP_pressure;BME280_temperature;BME280_humidity;BME280_pressure;Samples;Min_cycle;Max_cycle;Signal;HPM_P1;HPM_P2
2023/05/16 00:02:22;;;;;;;;;;;;;;;12.61;76.11;98557.75;5061424;28;19925;-77
2023/05/16 00:04:47;;;;;;;;;;;;;;;12.75;75.08;98553.44;5055130;28;19928;-77
2023/05/16 00:07:13;;;;;;;;;;;;;;;12.58;75.72;98565.53;5055958;28;20326;-77
2023/05/16 00:09:38;;;;;;;;;;;;;;;12.25;76.49;98563.38;5058407;28;20006;-77
2023/05/16 00:12:03;;;;;;;;;;;;;;;12.57;75.40;98566.59;5051844;28;19916;-77
2023/05/16 00:14:29;;;;;;;;;;;;;;;12.32;76.20;98570.06;5055421;28;20487;-77
2023/05/16 00:16:57;;;;;;;;;;;;;;;12.21;75.98;98568.44;5051152;28;19924;-77
2023/05/16 00:19:22;;;;;;;;;;;;;;;12.49;75.32;98575.16;5048517;28;19920;-77
2023/05/16 00:21:47;;;;;;;;;;;;;;;12.40;74.83;98569.53;5049641;28;19936;-78
2023/05/16 00:24:13;;;;;;;;;;;;;;;12.11;76.29;98567.63;5045691;28;19921;-77
2023/05/16 00:26:38;;;;;;;;;;;;;;;12.35;75.13;98566.84;5055498;28;19921;-77
2023/05/16 00:29:03;;;;;;;;;;;;;;;12.36;75.45;98575.69;5055486;28;19921;-77
2023/05/16 00:31:28;;;;;;;;;;;;;;;12.32;75.56;98575.41;5055377;28;19966;-77
2023/05/16 00:33:54;;;;;;;;;;;;;;;12.33;75.48;98570.88;5049332;28;19925;-77
2023/05/16 00:36:20;;;;;;;;;;;;;;;12.21;75.99;98578.34;5051152;28;19925;-77
2023/05/16 00:38:45;;;;;;;;;;;;;;;12.06;76.51;98571.09;5050775;28;19945;-77
2023/05/16 00:41:10;;;;;;;;;;;;;;;12.21;76.16;98575.69;5049996;28;19921;-77
2023/05/16 00:43:36;;;;;;;;;;;;;;;11.50;78.87;98582.63;5059124;28;19928;-77
2023/05/16 00:46:01;;;;;;;;;;;;;;;12.10;76.75;98571.38;5048575;28;19985;-77
2023/05/16 00:48:27;;;;;;;;;;;;;;;11.96;77.26;98574.56;5044221;28;19940;-77
2023/05/16 00:50:52;;;;;;;;;;;;;;;12.21;76.08;98576.47;5051587;28;20340;-77
2023/05/16 00:53:18;;;;;;;;;;;;;;;12.41;75.47;98570.34;5052432;28;19923;-77
2023/05/16 00:55:44;;;;;;;;;;;;;;;12.49;75.03;98575.16;5051162;28;20360;-77
2023/05/16 00:58:10;;;;;;;;;;;;;;;12.26;75.34;98581.03;5056769;28;20322;-77
2023/05/16 01:00:36;;;;;;;;;;;;;;;12.28;75.55;98581.56;5051464;28;20335;-77
2023/05/16 01:03:03;;;;;;;;;;;;;;;12.56;74.62;98581.03;5050423;28;19939;-77
2023/05/16 01:05:29;;;;;;;;;;;;;;;12.57;74.22;98580.78;5052826;28;19939;-77
2023/05/16 01:07:54;;;;;;;;;;;;;;;12.11;76.06;98587.16;5052501;28;19935;-77
2023/05/16 01:10:19;;;;;;;;;;;;;;;11.84;77.01;98586.53;5051218;28;19917;-77
2023/05/16 01:13:10;;;;;;;;;;;;;;;12.15;76.05;98588.22;5047978;28;19916;-78
2023/05/16 01:15:43;;;;;;;;;;;;;;;12.17;76.02;98588.75;5053583;28;20008;-77
2023/05/16 01:18:15;;;;;;;;;;;;;;;12.36;75.25;98591.75;5055860;28;19961;-77
2023/05/16 01:20:40;;;;;;;;;;;;;;;12.33;74.79;98602.97;5054525;28;20015;-78
2023/05/16 01:23:18;;;;;;;;;;;;;;;12.07;75.29;98609.34;5056160;28;20008;-78
2023/05/16 01:25:44;;;;;;;;;;;;;;;12.57;74.05;98604.91;5054254;28;19927;-78
2023/05/16 01:28:12;;;;;;;;;;;;;;;12.37;74.89;98598.69;5052835;28;19920;-77
2023/05/16 01:30:38;;;;;;;;;;;;;;;11.88;76.19;98604.47;5063447;28;20006;-77
2023/05/16 01:33:04;;;;;;;;;;;;;;;12.21;75.49;98608.56;5053236;28;19928;-77
2023/05/16 01:35:29;;;;;;;;;;;;;;;12.21;74.83;98607.78;5058509;28;19920;-78
2023/05/16 01:38:10;;;;;;;;;;;;;;;11.88;76.00;98601.78;5058088;28;19931;-78
2023/05/16 01:40:40;;;;;;;;;;;;;;;11.98;75.90;98607.19;5052166;28;20401;-77
2023/05/16 01:43:09;;;;;;;;;;;;;;;12.21;74.80;98610.47;5057780;28;19946;-78
2023/05/16 01:45:37;;;;;;;;;;;;;;;11.52;76.79;98613.38;5060923;28;19921;-77
2023/05/16 01:48:21;;;;;;;;;;;;;;;12.26;75.20;98613.13;5056118;28;19921;-78
2023/05/16 01:50:51;;;;;;;;;;;;;;;12.33;74.34;98606.47;5059438;28;20317;-77
2023/05/16 01:53:19;;;;;;;;;;;;;;;12.31;74.08;98619.31;5052770;28;19917;-78
2023/05/16 01:55:47;;;;;;;;;;;;;;;12.41;74.15;98623.88;5056384;28;20383;-77
2023/05/16 01:58:16;;;;;;;;;;;;;;;12.16;74.96;98608.59;5060650;28;20042;-77
2023/05/16 02:00:42;;;;;;;;;;;;;;;11.61;75.31;98611.84;5057324;28;19947;-77
2023/05/16 02:03:07;;;;;;;;;;;;;;;11.61;76.62;98611.84;5051104;28;20024;-77
2023/05/16 02:05:33;;;;;;;;;;;;;;;11.87;75.83;98621.59;5055987;28;19932;-77
2023/05/16 02:07:59;;;;;;;;;;;;;;;12.28;74.65;98621.69;5051822;28;19936;-77
2023/05/16 02:10:24;;;;;;;;;;;;;;;12.06;75.27;98621.13;5057298;28;19963;-77
2023/05/16 02:12:50;;;;;;;;;;;;;;;12.16;74.74;98623.81;5056975;28;19921;-77
2023/05/16 02:15:15;;;;;;;;;;;;;;;11.01;77.92;98633.63;5051436;28;19925;-77
2023/05/16 02:17:41;;;;;;;;;;;;;;;11.04;78.98;98633.13;5054332;28;20135;-78
2023/05/16 02:20:10;;;;;;;;;;;;;;;11.12;78.80;98639.84;5056377;28;20726;-77
2023/05/16 02:22:36;;;;;;;;;;;;;;;10.54;80.85;98633.53;5056761;28;19920;-77
2023/05/16 02:25:02;;;;;;;;;;;;;;;10.32;83.31;98630.13;5052929;28;19917;-77
2023/05/16 02:27:27;;;;;;;;;;;;;;;10.33;81.76;98631.72;5048702;28;20391;-77
2023/05/16 02:29:52;;;;;;;;;;;;;;;10.60;81.41;98636.22;5050773;28;19924;-77
2023/05/16 02:32:17;;;;;;;;;;;;;;;9.99;83.39;98640.13;5053935;28;19928;-77
2023/05/16 02:34:43;;;;;;;;;;;;;;;9.52;84.06;98637.94;5056963;28;20007;-77
2023/05/16 02:37:08;;;;;;;;;;;;;;;9.72;85.10;98645.38;5058035;28;19924;-77
2023/05/16 02:39:33;;;;;;;;;;;;;;;9.44;86.92;98642.88;5052017;28;20384;-77
2023/05/16 02:41:58;;;;;;;;;;;;;;;9.17;86.99;98644.66;5059840;28;19924;-77
2023/05/16 02:44:24;;;;;;;;;;;;;;;9.24;86.42;98643.41;5054558;28;20262;-77
2023/05/16 02:46:49;;;;;;;;;;;;;;;9.72;86.45;98640.88;5054964;28;20303;-77
2023/05/16 02:49:14;;;;;;;;;;;;;;;10.19;84.31;98643.84;5056315;28;19921;-78
2023/05/16 02:51:40;;;;;;;;;;;;;;;10.52;81.08;98641.00;5057758;28;19928;-77
2023/05/16 02:54:08;;;;;;;;;;;;;;;9.42;86.82;98651.13;5061294;28;20019;-77
2023/05/16 02:56:33;;;;;;;;;;;;;;;9.95;85.82;98647.81;5050244;28;19929;-77
2023/05/16 02:58:58;;;;;;;;;;;;;;;10.13;83.86;98644.06;5058409;28;19917;-77
2023/05/16 03:01:24;;;;;;;;;;;;;;;10.11;83.99;98643.50;5062772;28;19933;-77
2023/05/16 03:03:49;;;;;;;;;;;;;;;10.26;83.50;98641.00;5055131;28;21028;-77
2023/05/16 03:06:15;;;;;;;;;;;;;;;10.23;82.45;98644.16;5060972;28;19946;-77
2023/05/16 03:08:40;;;;;;;;;;;;;;;9.45;85.27;98644.50;5054352;28;19947;-77
2023/05/16 03:11:05;;;;;;;;;;;;;;;9.32;87.93;98652.84;5054983;28;19928;-77
2023/05/16 03:13:31;;;;;;;;;;;;;;;9.21;86.34;98648.44;5056642;28;20020;-77
2023/05/16 03:15:57;;;;;;;;;;;;;;;8.95;87.28;98656.00;5053895;28;19931;-77
2023/05/16 03:18:22;;;;;;;;;;;;;;;9.36;86.28;98656.63;5058988;28;19920;-77
2023/05/16 03:20:47;;;;;;;;;;;;;;;8.85;87.48;98657.72;5054862;28;20096;-77
2023/05/16 03:23:12;;;;;;;;;;;;;;;8.95;87.90;98652.56;5061219;28;19963;-77
2023/05/16 03:25:38;;;;;;;;;;;;;;;8.79;87.46;98658.69;5053185;28;19920;-77
2023/05/16 03:28:06;;;;;;;;;;;;;;;8.82;87.75;98660.88;5060768;28;19927;-77
2023/05/16 03:30:32;;;;;;;;;;;;;;;9.41;86.14;98664.69;5060269;28;19925;-77
2023/05/16 03:32:57;;;;;;;;;;;;;;;9.48;85.15;98670.66;5058021;28;19928;-77
2023/05/16 03:35:23;;;;;;;;;;;;;;;9.36;84.57;98668.09;5060316;28;20319;-77
2023/05/16 03:37:48;;;;;;;;;;;;;;;8.74;86.87;98678.03;5047248;28;20346;-77
2023/05/16 03:40:13;;;;;;;;;;;;;;;9.25;85.53;98689.50;5058002;28;19983;-77
2023/05/16 03:42:39;;;;;;;;;;;;;;;9.85;83.58;98690.31;5058984;28;19933;-78
2023/05/16 03:45:05;;;;;;;;;;;;;;;9.34;84.16;98690.69;5056648;28;20002;-77
2023/05/16 03:47:30;;;;;;;;;;;;;;;9.66;84.56;98689.84;5062310;28;19924;-77
2023/05/16 03:49:56;;;;;;;;;;;;;;;10.10;82.36;98697.84;5060532;28;20334;-77
2023/05/16 03:52:21;;;;;;;;;;;;;;;10.41;81.48;98689.97;5065697;28;20351;-77
2023/05/16 03:54:47;;;;;;;;;;;;;;;9.87;82.49;98701.56;5065326;28;19923;-77
2023/05/16 03:57:12;;;;;;;;;;;;;;;10.03;81.83;98698.03;5065689;28;20000;-77
2023/05/16 03:59:38;;;;;;;;;;;;;;;9.64;82.97;98697.25;5051864;28;19929;-77
2023/05/16 04:02:03;;;;;;;;;;;;;;;9.48;83.95;98698.09;5060116;28;19920;-77
2023/05/16 04:04:28;;;;;;;;;;;;;;;9.79;83.66;98707.31;5047656;28;19954;-77
2023/05/16 04:06:53;;;;;;;;;;;;;;;10.70;80.82;98697.72;5052861;28;19929;-78
2023/05/16 04:09:19;;;;;;;;;;;;;;;10.73;80.39;98700.69;5063047;28;19924;-77
2023/05/16 04:11:44;;;;;;;;;;;;;;;11.28;77.96;98700.34;5046910;28;19921;-78
2023/05/16 04:14:09;;;;;;;;;;;;;;;11.56;77.20;98705.34;5059529;28;19924;-77
2023/05/16 04:16:35;;;;;;;;;;;;;;;11.12;77.93;98709.31;5057783;28;20372;-78
2023/05/16 04:19:01;;;;;;;;;;;;;;;11.26;78.26;98713.16;5056559;28;20410;-78
2023/05/16 04:21:26;;;;;;;;;;;;;;;10.60;79.36;98713.63;5039635;28;20387;-78
2023/05/16 04:23:51;;;;;;;;;;;;;;;10.28;81.44;98717.03;5060954;28;19982;-78
2023/05/16 04:26:16;;;;;;;;;;;;;;;9.68;85.18;98722.38;5051665;28;19929;-78
2023/05/16 04:28:42;;;;;;;;;;;;;;;11.05;79.58;98711.41;5045660;28;19921;-78
2023/05/16 04:31:07;;;;;;;;;;;;;;;11.47;77.50;98716.78;5045265;28;19921;-78
2023/05/16 04:33:33;;;;;;;;;;;;;;;11.55;76.86;98719.00;5052359;28;19931;-78
2023/05/16 04:35:59;;;;;;;;;;;;;;;11.50;77.33;98718.94;5053979;28;20291;-78
2023/05/16 04:38:24;;;;;;;;;;;;;;;11.17;78.16;98720.03;5053065;28;19957;-78
2023/05/16 04:40:50;;;;;;;;;;;;;;;11.08;77.96;98726.91;5053627;28;19917;-78
2023/05/16 04:43:15;;;;;;;;;;;;;;;11.53;77.22;98724.56;5049709;28;19929;-78
2023/05/16 04:45:41;;;;;;;;;;;;;;;11.13;78.35;98735.78;5062718;28;19921;-78
2023/05/16 04:48:07;;;;;;;;;;;;;;;11.55;77.24;98743.84;5044442;28;19929;-78
2023/05/16 04:50:32;;;;;;;;;;;;;;;11.49;76.48;98731.50;5053241;28;20273;-78
2023/05/16 04:52:57;;;;;;;;;;;;;;;10.67;78.98;98743.59;5055711;28;19920;-78
2023/05/16 04:55:23;;;;;;;;;;;;;;;10.63;80.58;98742.50;5055699;28;19931;-78
2023/05/16 04:57:48;;;;;;;;;;;;;;;9.74;83.33;98749.91;5056691;28;19990;-80
2023/05/16 05:00:15;;;;;;;;;;;;;;;10.18;82.46;98748.91;5052186;28;20004;-80
2023/05/16 05:02:40;;;;;;;;;;;;;;;9.44;84.13;98752.09;5053580;28;20334;-80
2023/05/16 05:05:06;;;;;;;;;;;;;;;9.51;84.07;98750.09;5052198;28;19924;-80
2023/05/16 05:07:31;;;;;;;;;;;;;;;9.91;83.36;98763.19;5050949;28;19924;-81
2023/05/16 05:09:57;;;;;;;;;;;;;;;10.15;82.71;98765.44;5052892;28;19925;-80
2023/05/16 05:12:22;;;;;;;;;;;;;;;10.89;79.82;98761.19;5047823;28;19928;-80
2023/05/16 05:14:47;;;;;;;;;;;;;;;10.48;78.13;98775.16;5047912;28;19924;-80
2023/05/16 05:17:12;;;;;;;;;;;;;;;10.35;80.01;98771.00;5065490;28;19921;-80
2023/05/16 05:19:38;;;;;;;;;;;;;;;10.83;78.46;98775.56;5051773;28;19920;-80
2023/05/16 05:22:03;;;;;;;;;;;;;;;10.49;78.98;98772.25;5042508;28;19933;-80
2023/05/16 05:24:28;;;;;;;;;;;;;;;9.86;80.06;98779.09;5055779;28;19929;-80
2023/05/16 05:26:54;;;;;;;;;;;;;;;10.47;80.12;98777.03;5055397;28;19977;-80
2023/05/16 05:29:19;;;;;;;;;;;;;;;10.14;79.39;98781.66;5056704;28;19925;-80
2023/05/16 05:31:44;;;;;;;;;;;;;;;10.69;78.77;98778.84;5057679;28;20038;-80
2023/05/16 05:34:09;;;;;;;;;;;;;;;9.47;80.64;98776.41;5057745;28;20566;-80
2023/05/16 05:36:35;;;;;;;;;;;;;;;9.49;80.98;98782.31;5057482;28;20300;-80
2023/05/16 05:39:00;;;;;;;;;;;;;;;10.11;81.19;98790.94;5059484;28;20281;-80
2023/05/16 05:41:26;;;;;;;;;;;;;;;10.82;78.87;98791.81;5043196;28;19929;-80
2023/05/16 05:43:51;;;;;;;;;;;;;;;10.70;78.23;98791.16;5059134;28;20360;-81
2023/05/16 05:46:16;;;;;;;;;;;;;;;11.01;77.70;98787.72;5057410;28;19970;-80
2023/05/16 05:48:42;;;;;;;;;;;;;;;10.69;78.71;98800.22;5054168;28;20284;-81
2023/05/16 05:51:07;;;;;;;;;;;;;;;11.08;77.04;98788.34;5059750;28;20062;-81
2023/05/16 05:53:33;;;;;;;;;;;;;;;11.01;77.32;98799.22;5054514;28;19962;-81
2023/05/16 05:55:58;;;;;;;;;;;;;;;10.82;77.51;98805.97;5059002;28;20038;-81
2023/05/16 05:58:23;;;;;;;;;;;;;;;10.97;77.90;98807.97;5053193;28;19989;-81
2023/05/16 06:00:49;;;;;;;;;;;;;;;11.31;75.50;98806.72;5059325;28;19929;-80
2023/05/16 06:03:14;;;;;;;;;;;;;;;11.43;75.59;98817.22;5057245;28;19964;-80
2023/05/16 06:05:40;;;;;;;;;;;;;;;11.56;74.85;98819.47;5049388;28;19958;-77
2023/05/16 06:08:05;;;;;;;;;;;;;;;11.37;75.53;98816.41;5050162;28;19917;-77
2023/05/16 06:10:30;;;;;;;;;;;;;;;11.59;74.69;98816.31;5044640;28;20008;-77
2023/05/16 06:12:56;;;;;;;;;;;;;;;10.98;74.83;98821.09;5050083;28;20361;-77
2023/05/16 06:15:21;;;;;;;;;;;;;;;10.77;76.34;98826.47;5045289;28;19920;-77
2023/05/16 06:17:46;;;;;;;;;;;;;;;10.63;76.34;98823.38;5049216;28;19970;-77
2023/05/16 06:20:11;;;;;;;;;;;;;;;10.47;76.88;98835.72;5052541;28;19925;-77
2023/05/16 06:22:37;;;;;;;;;;;;;;;10.09;77.36;98841.03;5047956;28;20412;-77
2023/05/16 06:25:02;;;;;;;;;;;;;;;10.94;76.09;98843.22;5056752;28;20019;-77
2023/05/16 06:27:27;;;;;;;;;;;;;;;10.99;75.56;98843.25;5062274;28;20453;-77
2023/05/16 06:29:53;;;;;;;;;;;;;;;10.85;75.40;98842.03;5048213;28;19947;-77
2023/05/16 06:32:18;;;;;;;;;;;;;;;10.35;76.85;98847.56;5045278;28;19936;-77
2023/05/16 06:34:43;;;;;;;;;;;;;;;10.67;77.52;98850.38;5043042;28;20433;-77
2023/05/16 06:37:08;;;;;;;;;;;;;;;11.10;75.66;98853.00;5050942;28;19925;-77
2023/05/16 06:39:34;;;;;;;;;;;;;;;11.01;75.65;98855.31;5047810;28;19975;-77
2023/05/16 06:42:00;;;;;;;;;;;;;;;11.32;73.74;98857.25;5039261;28;19931;-77
2023/05/16 06:44:26;;;;;;;;;;;;;;;11.10;73.39;98861.81;5038296;28;20015;-77
2023/05/16 06:46:51;;;;;;;;;;;;;;;11.29;73.87;98868.41;5051876;28;20027;-77
2023/05/16 06:49:17;;;;;;;;;;;;;;;11.58;73.46;98868.97;5055214;28;19924;-77
2023/05/16 06:51:42;;;;;;;;;;;;;;;11.66;73.25;98867.69;5053997;28;19920;-77
2023/05/16 06:54:07;;;;;;;;;;;;;;;11.89;72.15;98878.88;5062442;28;19924;-77
2023/05/16 06:56:33;;;;;;;;;;;;;;;11.87;71.82;98878.34;5060260;28;19964;-77
2023/05/16 06:59:00;;;;;;;;;;;;;;;11.99;71.17;98872.81;5062065;28;19967;-77
2023/05/16 07:01:25;;;;;;;;;;;;;;;12.02;71.07;98881.13;5060881;28;20397;-77
2023/05/16 07:03:51;;;;;;;;;;;;;;;12.11;71.07;98883.31;5060345;28;19932;-77
2023/05/16 07:06:16;;;;;;;;;;;;;;;11.89;72.20;98888.78;5058549;28;19924;-77
2023/05/16 07:08:41;;;;;;;;;;;;;;;11.62;72.45;98894.13;5060358;28;19928;-78
2023/05/16 07:11:07;;;;;;;;;;;;;;;11.64;72.72;98886.66;5062165;28;19921;-77
2023/05/16 07:13:32;;;;;;;;;;;;;;;11.14;72.55;98900.31;5065683;28;20368;-77
2023/05/16 07:15:57;;;;;;;;;;;;;;;11.53;73.02;98892.97;5066025;28;19920;-77
2023/05/16 07:18:22;;;;;;;;;;;;;;;11.72;72.32;98896.13;5061297;28;20467;-77
2023/05/16 07:20:48;;;;;;;;;;;;;;;11.69;71.78;98885.91;5063494;28;19975;-77
2023/05/16 07:23:13;;;;;;;;;;;;;;;11.84;71.69;98897.56;5075569;28;20458;-77
2023/05/16 07:25:38;;;;;;;;;;;;;;;11.86;71.79;98897.31;5053917;28;19924;-77
2023/05/16 07:28:04;;;;;;;;;;;;;;;11.85;71.32;98899.19;5047619;28;19929;-77
2023/05/16 07:30:29;;;;;;;;;;;;;;;11.62;72.27;98896.78;5068428;28;19975;-77
2023/05/16 07:32:54;;;;;;;;;;;;;;;11.48;71.83;98895.59;5066242;28;20396;-77
2023/05/16 07:35:19;;;;;;;;;;;;;;;11.71;71.35;98899.84;5063049;28;20376;-77
2023/05/16 07:37:45;;;;;;;;;;;;;;;11.47;71.26;98895.84;5060762;28;20372;-77
2023/05/16 07:40:10;;;;;;;;;;;;;;;11.60;71.27;98900.81;5058076;28;20078;-77
2023/05/16 07:42:36;;;;;;;;;;;;;;;11.34;71.24;98905.06;5051958;28;20058;-77
2023/05/16 07:45:01;;;;;;;;;;;;;;;11.39;70.63;98909.66;5060289;28;19944;-77
2023/05/16 07:47:26;;;;;;;;;;;;;;;11.56;70.70;98913.03;5066747;28;19921;-77
2023/05/16 07:49:52;;;;;;;;;;;;;;;11.72;69.92;98915.66;5064090;28;20399;-77
2023/05/16 07:52:17;;;;;;;;;;;;;;;11.30;70.07;98917.31;5072058;28;19920;-77
2023/05/16 07:54:42;;;;;;;;;;;;;;;11.65;69.60;98922.22;5050231;28;19916;-77
2023/05/16 07:57:07;;;;;;;;;;;;;;;11.12;71.45;98931.81;5067102;28;20430;-77
2023/05/16 07:59:33;;;;;;;;;;;;;;;11.54;70.23;98933.88;5062797;28;20400;-77
2023/05/16 08:01:58;;;;;;;;;;;;;;;10.84;69.31;98934.69;5070465;28;20007;-77
2023/05/16 08:04:23;;;;;;;;;;;;;;;11.42;70.36;98933.22;5068796;28;20395;-77
2023/05/16 08:06:49;;;;;;;;;;;;;;;11.49;69.71;98939.19;5056977;28;19983;-77
2023/05/16 08:09:14;;;;;;;;;;;;;;;11.55;68.93;98935.50;5049143;28;19921;-77
2023/05/16 08:11:39;;;;;;;;;;;;;;;11.56;68.38;98935.25;5046179;28;19927;-77
2023/05/16 08:14:05;;;;;;;;;;;;;;;11.63;69.48;98938.53;5055650;28;19928;-77
2023/05/16 08:16:30;;;;;;;;;;;;;;;11.80;68.58;98930.41;5049395;28;19921;-77
2023/05/16 08:18:56;;;;;;;;;;;;;;;11.62;68.05;98934.22;5060446;28;19916;-77
2023/05/16 08:21:21;;;;;;;;;;;;;;;11.69;68.39;98945.56;5057242;28;20029;-77
2023/05/16 08:23:46;;;;;;;;;;;;;;;12.06;68.31;98944.84;5065441;28;19967;-77
2023/05/16 08:26:11;;;;;;;;;;;;;;;11.83;67.69;98949.44;5066201;28;19924;-77
2023/05/16 08:28:37;;;;;;;;;;;;;;;12.41;66.62;98953.91;5063820;28;19935;-77
2023/05/16 08:31:02;;;;;;;;;;;;;;;12.67;65.71;98946.84;5062730;28;19971;-77
2023/05/16 08:33:27;;;;;;;;;;;;;;;12.57;65.00;98946.78;5058998;28;19927;-77
2023/05/16 08:35:52;;;;;;;;;;;;;;;12.34;64.17;98949.84;5055531;28;19927;-77
2023/05/16 08:38:18;;;;;;;;;;;;;;;12.65;64.73;98948.97;5060242;28;19927;-77
2023/05/16 08:40:44;;;;;;;;;;;;;;;12.41;65.18;98950.41;5061833;28;19920;-77
2023/05/16 08:43:09;;;;;;;;;;;;;;;12.42;64.13;98954.72;5066340;28;19920;-77
2023/05/16 08:45:34;;;;;;;;;;;;;;;12.73;63.51;98951.97;5062900;28;20291;-77
2023/05/16 08:48:00;;;;;;;;;;;;;;;12.75;63.05;98954.41;5047362;28;19936;-77
2023/05/16 08:50:29;;;;;;;;;;;;;;;12.50;63.00;98959.59;5049433;28;19932;-77
2023/05/16 08:52:55;;;;;;;;;;;;;;;12.55;62.89;98954.28;5064364;28;20015;-77
2023/05/16 08:55:21;;;;;;;;;;;;;;;12.58;62.80;98957.22;5060548;28;20414;-77
2023/05/16 08:57:48;;;;;;;;;;;;;;;12.39;63.65;98960.59;5053670;28;19917;-77
2023/05/16 09:00:14;;;;;;;;;;;;;;;12.50;63.37;98951.56;5056749;28;19924;-77
2023/05/16 09:02:40;;;;;;;;;;;;;;;12.44;63.30;98963.31;5062652;28;19924;-77
2023/05/16 09:05:07;;;;;;;;;;;;;;;12.52;63.01;98962.81;5065207;28;19927;-77
2023/05/16 09:07:32;;;;;;;;;;;;;;;12.34;62.97;98963.25;5068247;28;19970;-77
2023/05/16 09:09:57;;;;;;;;;;;;;;;12.28;62.68;98965.06;5057018;28;20379;-77
2023/05/16 09:12:23;;;;;;;;;;;;;;;12.43;62.59;98967.03;5047169;28;19921;-77
2023/05/16 09:14:48;;;;;;;;;;;;;;;12.58;62.36;98957.22;5081902;28;19921;-77
2023/05/16 09:17:14;;;;;;;;;;;;;;;12.67;62.17;98957.53;5041596;28;19921;-77
2023/05/16 09:19:43;;;;;;;;;;;;;;;12.56;62.29;98971.94;5057854;28;19928;-77
2023/05/16 09:22:12;;;;;;;;;;;;;;;12.75;61.24;98965.91;5054333;28;20037;-77
2023/05/16 09:24:41;;;;;;;;;;;;;;;11.86;60.37;98973.00;5048133;28;20086;-77
2023/05/16 09:27:13;;;;;;;;;;;;;;;12.61;62.58;98962.09;5056461;28;20406;-77
2023/05/16 09:29:42;;;;;;;;;;;;;;;12.60;60.95;98970.38;5054001;28;19968;-77
2023/05/16 09:32:15;;;;;;;;;;;;;;;12.43;59.75;98967.03;5057323;28;20052;-76
2023/05/16 09:34:44;;;;;;;;;;;;;;;12.77;60.60;98968.34;5054321;28;19924;-77
2023/05/16 09:37:12;;;;;;;;;;;;;;;12.71;61.39;98966.69;5045058;28;20364;-77
2023/05/16 09:39:40;;;;;;;;;;;;;;;12.57;60.99;98970.88;5057920;28;20343;-76
2023/05/16 09:42:06;;;;;;;;;;;;;;;12.78;60.56;98965.41;5051289;28;20286;-77
2023/05/16 09:44:31;;;;;;;;;;;;;;;12.85;59.69;98970.53;5061637;28;19935;-77
2023/05/16 09:46:56;;;;;;;;;;;;;;;12.93;59.75;98966.56;5047107;28;19925;-77
2023/05/16 09:49:23;;;;;;;;;;;;;;;12.85;59.92;98975.88;5056741;28;20460;-77
2023/05/16 09:51:48;;;;;;;;;;;;;;;12.97;59.82;98970.31;5052896;28;19920;-77
2023/05/16 09:54:14;;;;;;;;;;;;;;;12.93;59.02;98959.28;5054013;28;20612;-77
2023/05/16 09:56:49;;;;;;;;;;;;;;;13.14;59.14;98958.38;5053681;28;20330;-77
2023/05/16 09:59:15;;;;;;;;;;;;;;;13.04;58.52;98965.53;5055493;28;19924;-77
2023/05/16 10:01:41;;;;;;;;;;;;;;;12.86;57.69;98955.25;5060866;28;20380;-76
2023/05/16 10:04:09;;;;;;;;;;;;;;;12.33;57.43;98967.78;5057059;28;20395;-76
2023/05/16 10:06:35;;;;;;;;;;;;;;;13.03;58.03;98955.88;5055324;28;19928;-76
2023/05/16 10:09:00;;;;;;;;;;;;;;;12.99;59.26;98957.47;5052742;28;20299;-76
2023/05/16 10:11:26;;;;;;;;;;;;;;;13.27;56.52;98949.84;5063927;28;20368;-76
2023/05/16 10:13:52;;;;;;;;;;;;;;;12.62;55.59;98947.59;5066384;28;20145;-77
2023/05/16 10:16:17;;;;;;;;;;;;;;;13.36;57.92;98945.59;5061800;28;19959;-77
2023/05/16 10:18:43;;;;;;;;;;;;;;;13.54;57.40;98958.50;5063962;28;20296;-77
2023/05/16 10:21:12;;;;;;;;;;;;;;;13.37;55.96;98949.06;5052175;28;19959;-76
2023/05/16 10:23:40;;;;;;;;;;;;;;;13.59;56.98;98951.53;5040449;28;19960;-77
2023/05/16 10:26:06;;;;;;;;;;;;;;;13.60;54.60;98953.97;5053278;28;19973;-77
2023/05/16 10:28:31;;;;;;;;;;;;;;;13.47;57.07;98960.63;5055620;28;19932;-77
2023/05/16 10:30:58;;;;;;;;;;;;;;;13.03;55.42;98959.38;5055310;28;19928;-77
2023/05/16 10:33:23;;;;;;;;;;;;;;;13.72;56.57;98965.22;5062339;28;19920;-77
2023/05/16 10:35:49;;;;;;;;;;;;;;;13.62;56.46;98962.53;5052490;28;19970;-77
2023/05/16 10:38:16;;;;;;;;;;;;;;;13.70;55.15;98977.28;5055073;28;19932;-77
2023/05/16 10:40:41;;;;;;;;;;;;;;;13.66;56.15;98968.16;5052763;28;19925;-77
2023/05/16 10:43:07;;;;;;;;;;;;;;;13.71;55.77;98969.00;5060623;28;20393;-77
2023/05/16 10:45:33;;;;;;;;;;;;;;;13.59;55.64;98967.59;5045310;28;19935;-77
2023/05/16 10:48:03;;;;;;;;;;;;;;;13.61;54.97;98965.50;5048199;28;20630;-77
2023/05/16 10:50:32;;;;;;;;;;;;;;;13.87;51.65;98959.09;5055098;28;19917;-77
2023/05/16 10:53:13;;;;;;;;;;;;;;;14.18;52.66;98969.56;5056202;28;19952;-77
2023/05/16 10:55:38;;;;;;;;;;;;;;;14.20;53.80;98971.97;5063336;28;19916;-77
2023/05/16 10:58:04;;;;;;;;;;;;;;;14.09;54.26;98973.06;5054797;28;19917;-77
2023/05/16 11:00:29;;;;;;;;;;;;;;;14.01;54.41;98981.66;5062647;28;20414;-77
2023/05/16 11:03:03;;;;;;;;;;;;;;;14.05;53.61;98986.22;5061200;28;19924;-77
2023/05/16 11:05:29;;;;;;;;;;;;;;;14.13;53.94;98980.31;5064747;28;19959;-77
2023/05/16 11:08:07;;;;;;;;;;;;;;;14.06;54.95;98984.34;5065251;28;20379;-77
2023/05/16 11:10:32;;;;;;;;;;;;;;;14.17;54.42;98973.34;5060926;28;19917;-77
2023/05/16 11:13:02;;;;;;;;;;;;;;;14.42;52.75;98985.97;5059297;28;19921;-77
2023/05/16 11:15:31;;;;;;;;;;;;;;;13.73;50.41;98982.13;5060164;28;20430;-77
2023/05/16 11:18:07;;;;;;;;;;;;;;;13.98;53.37;98984.84;5060045;28;20051;-77
2023/05/16 11:20:33;;;;;;;;;;;;;;;14.18;52.08;98979.50;5060944;28;19943;-77
2023/05/16 11:23:17;;;;;;;;;;;;;;;14.41;51.74;98972.81;5057896;28;20058;-77
2023/05/16 11:25:47;;;;;;;;;;;;;;;14.58;51.43;98967.97;5059366;28;20288;-77
2023/05/16 11:28:13;;;;;;;;;;;;;;;14.85;51.54;98968.47;5056271;28;19920;-77
2023/05/16 11:30:42;;;;;;;;;;;;;;;14.71;51.19;98976.28;5056021;28;19955;-77
2023/05/16 11:33:07;;;;;;;;;;;;;;;14.81;51.24;98987.00;5054101;28;19921;-77
2023/05/16 11:35:33;;;;;;;;;;;;;;;14.86;51.94;98972.75;5057148;28;19916;-77
2023/05/16 11:37:58;;;;;;;;;;;;;;;14.95;50.01;98958.47;5068654;28;20334;-77
2023/05/16 11:40:25;;;;;;;;;;;;;;;14.88;50.46;98971.41;5051477;28;20544;-77
2023/05/16 11:42:50;;;;;;;;;;;;;;;15.08;50.14;98983.97;5079291;28;19924;-77
2023/05/16 11:45:16;;;;;;;;;;;;;;;15.12;50.50;98965.41;5058143;28;20343;-77
2023/05/16 11:47:43;;;;;;;;;;;;;;;15.20;49.88;98975.59;5058401;28;19921;-77
2023/05/16 11:50:15;;;;;;;;;;;;;;;15.36;49.98;98974.44;5065379;28;19921;-77
2023/05/16 11:52:52;;;;;;;;;;;;;;;15.26;51.06;98969.13;5059163;28;19924;-77
2023/05/16 11:55:19;;;;;;;;;;;;;;;15.16;50.26;98974.56;5049866;28;19963;-77
2023/05/16 11:57:44;;;;;;;;;;;;;;;15.34;50.41;98968.53;5054556;28;19920;-77
2023/05/16 12:00:13;;;;;;;;;;;;;;;14.65;50.88;98968.50;5064958;28;20325;-77
2023/05/16 12:02:39;;;;;;;;;;;;;;;14.80;50.94;98966.59;5064255;28;19925;-78
2023/05/16 12:05:08;;;;;;;;;;;;;;;14.84;50.41;98973.03;5045696;28;19928;-77
2023/05/16 12:07:33;;;;;;;;;;;;;;;14.88;52.34;98979.47;5056390;28;19923;-77
2023/05/16 12:10:03;;;;;;;;;;;;;;;14.97;50.69;98980.50;5060229;28;19928;-77
2023/05/16 12:12:28;;;;;;;;;;;;;;;15.04;48.60;98974.84;5071935;28;20020;-78
2023/05/16 12:14:53;;;;;;;;;;;;;;;15.13;48.86;98975.09;5051812;28;20017;-77
2023/05/16 12:17:21;;;;;;;;;;;;;;;15.52;48.42;98970.63;5058658;28;19936;-77
2023/05/16 12:19:46;;;;;;;;;;;;;;;15.53;48.39;98969.56;5061430;28;19995;-77
2023/05/16 12:22:16;;;;;;;;;;;;;;;15.87;48.24;98970.44;5050376;28;20015;-77
2023/05/16 12:24:41;;;;;;;;;;;;;;;16.20;47.33;98960.75;5067931;28;19920;-77
2023/05/16 12:27:07;;;;;;;;;;;;;;;16.32;46.33;98967.38;5060685;28;19920;-77
2023/05/16 12:29:32;;;;;;;;;;;;;;;16.53;47.08;98957.28;5062372;28;19925;-78
2023/05/16 12:31:59;;;;;;;;;;;;;;;16.67;47.59;98960.06;5070625;28;19988;-78
2023/05/16 12:34:27;;;;;;;;;;;;;;;16.49;46.88;98961.56;5064365;28;19924;-78
2023/05/16 12:36:53;;;;;;;;;;;;;;;16.40;46.90;98980.22;5069367;28;20376;-78
2023/05/16 12:39:19;;;;;;;;;;;;;;;15.97;48.60;98973.03;5053362;28;19928;-77
2023/05/16 12:41:44;;;;;;;;;;;;;;;15.95;48.77;98975.22;5063344;28;19928;-77
2023/05/16 12:44:11;;;;;;;;;;;;;;;16.04;47.71;98984.31;5063605;28;19924;-77